Time;durP1;ratioP1;P1;durP2;ratioP2;P2;SDS_P1;SDS_P2;PMS_P1;PMS_P2;Temp;Humidity;BMP_temperature;BMP_pressure;BME280_temperature;BME280_humidity;BME280_pressure;Samples;Min_cycle;Max_cycle;Signal;HPM_P1;HPM_P2
2021/07/24 00:00:18;;;;;;;22.87;20.47;;;17.70;45.20;;;;;;5028453;28;20467;-55
2021/07/24 00:02:44;;;;;;;21.70;19.53;;;17.60;44.60;;;;;;5027659;28;20501;-55
2021/07/24 00:05:09;;;;;;;23.87;21.33;;;17.60;49.20;;;;;;5025825;28;20184;-54
2021/07/24 00:07:35;;;;;;;22.37;20.07;;;17.50;51.60;;;;;;5028324;28;20525;-54
2021/07/24 00:10:00;;;;;;;22.57;20.27;;;17.50;50.80;;;;;;5027795;28;20282;-53
2021/07/24 00:12:26;;;;;;;23.03;20.63;;;17.50;47.00;;;;;;5027596;28;20182;-54
2021/07/24 00:14:52;;;;;;;22.77;20.57;;;17.50;55.30;;;;;;5013944;28;20257;-54
2021/07/24 00:17:17;;;;;;;22.03;19.83;;;17.40;55.60;;;;;;5028233;28;20314;-52
2021/07/24 00:19:43;;;;;;;21.53;19.20;;;17.30;55.10;;;;;;5025915;28;20452;-55
2021/07/24 00:22:08;;;;;;;22.73;20.43;;;17.30;55.90;;;;;;5029134;28;20207;-55
2021/07/24 00:24:34;;;;;;;23.23;20.73;;;17.30;60.20;;;;;;5042087;28;20183;-55
2021/07/24 00:27:01;;;;;;;24.10;21.67;;;17.30;68.10;;;;;;5027838;28;20633;-55
2021/07/24 00:29:26;;;;;;;21.80;19.60;;;17.30;68.40;;;;;;5026196;28;20182;-53
2021/07/24 00:31:52;;;;;;;23.13;20.83;;;17.20;69.10;;;;;;5021594;28;21100;-54
2021/07/24 00:34:18;;;;;;;22.47;20.07;;;17.20;67.00;;;;;;5027436;28;20189;-53
2021/07/24 00:36:44;;;;;;;23.27;20.87;;;17.10;74.20;;;;;;5021394;28;20190;-52
2021/07/24 00:39:10;;;;;;;23.40;20.90;;;17.10;80.80;;;;;;5027685;28;20186;-53
2021/07/24 00:41:56;;;;;;;24.20;21.73;;;17.00;85.00;;;;;;5025330;28;20468;-57
2021/07/24 00:44:24;;;;;;;21.73;19.37;;;17.00;90.60;;;;;;5023246;28;20213;-51
2021/07/24 00:46:50;;;;;;;23.10;20.80;;;17.00;91.10;;;;;;5027730;28;20428;-54
2021/07/24 00:49:20;;;;;;;23.27;20.90;;;16.90;91.10;;;;;;5029141;28;20482;-54
2021/07/24 00:51:47;;;;;;;23.75;21.15;;;16.90;91.90;;;;;;5031913;28;20461;-56
2021/07/24 00:54:13;;;;;;;22.90;20.60;;;16.90;93.90;;;;;;5017367;28;20236;-54
2021/07/24 00:56:40;;;;;;;22.77;19.08;;;16.90;93.80;;;;;;5030104;28;20474;-49
2021/07/24 00:59:06;;;;;;;22.67;20.33;;;16.80;93.60;;;;;;5013091;28;20675;-53
2021/07/24 01:01:32;;;;;;;22.27;20.07;;;16.90;91.30;;;;;;5029459;28;20444;-56
2021/07/24 01:03:58;;;;;;;21.87;19.60;;;16.80;89.90;;;;;;5032010;28;20494;-55
2021/07/24 01:06:24;;;;;;;22.03;19.83;;;16.80;91.80;;;;;;5031315;28;20492;-51
2021/07/24 01:08:51;;;;;;;23.53;21.13;;;16.80;91.10;;;;;;5031553;28;20185;-53
2021/07/24 01:11:17;;;;;;;24.37;21.97;;;16.70;93.20;;;;;;5030376;28;20480;-52
2021/07/24 01:13:44;;;;;;;23.40;20.87;;;16.70;94.70;;;;;;5031703;28;20835;-53
2021/07/24 01:16:12;;;;;;;22.33;20.03;;;16.70;96.40;;;;;;5028691;28;20994;-51
2021/07/24 01:18:38;;;;;;;25.33;22.83;;;16.70;97.00;;;;;;5029825;28;20923;-54
2021/07/24 01:21:08;;;;;;;24.30;21.73;;;16.70;99.20;;;;;;5030896;28;20474;-54
2021/07/24 01:23:35;;;;;;;24.23;21.87;;;16.60;99.90;;;;;;5034046;28;20570;-54
2021/07/24 01:26:01;;;;;;;24.03;21.63;;;16.60;99.90;;;;;;5031710;28;20436;-53
2021/07/24 01:28:32;;;;;;;23.80;21.17;;;16.60;99.90;;;;;;5024236;28;20465;-54
2021/07/24 01:30:59;;;;;;;23.60;21.27;;;16.60;99.90;;;;;;5029324;28;20783;-52
2021/07/24 01:33:24;;;;;;;24.60;22.00;;;16.50;99.90;;;;;;5030832;28;20526;-55
2021/07/24 01:35:51;;;;;;;23.90;21.40;;;16.50;99.90;;;;;;5029587;28;20443;-51
2021/07/24 01:38:18;;;;;;;26.30;23.60;;;16.50;99.90;;;;;;5032083;28;20259;-52
2021/07/24 01:40:44;;;;;;;24.63;22.13;;;16.50;99.90;;;;;;5030226;28;21258;-52
2021/07/24 01:43:10;;;;;;;24.23;21.83;;;16.50;99.90;;;;;;5030818;28;20565;-53
2021/07/24 01:45:37;;;;;;;24.73;22.23;;;16.50;99.90;;;;;;5027239;28;20684;-57
2021/07/24 01:48:08;;;;;;;25.23;22.63;;;16.40;99.90;;;;;;5030845;28;20528;-54
2021/07/24 01:53:20;;;;;;;25.13;21.90;;;16.40;99.90;;;;;;5030193;28;20448;-53
2021/07/24 01:55:51;;;;;;;24.30;22.00;;;16.30;99.90;;;;;;5031043;28;20442;-57
2021/07/24 01:58:27;;;;;;;25.30;22.70;;;16.30;99.90;;;;;;5027131;28;20434;-55
2021/07/24 02:00:54;;;;;;;23.30;20.90;;;16.20;99.90;;;;;;5029872;28;20448;-54
2021/07/24 02:03:24;;;;;;;26.90;22.83;;;16.20;99.90;;;;;;5011514;28;20555;-52
2021/07/24 02:05:49;;;;;;;24.50;22.00;;;16.20;99.90;;;;;;5024041;28;20434;-54
2021/07/24 02:08:23;;;;;;;25.50;22.90;;;16.20;99.90;;;;;;5029903;28;20485;-55
2021/07/24 02:10:50;;;;;;;25.67;22.90;;;16.10;99.90;;;;;;5024732;28;20179;-53
2021/07/24 02:13:17;;;;;;;25.73;23.23;;;16.10;99.90;;;;;;5031075;28;20515;-50
2021/07/24 02:15:43;;;;;;;26.23;23.67;;;16.10;99.90;;;;;;5029164;28;20438;-54
2021/07/24 02:18:10;;;;;;;26.40;23.60;;;16.00;99.90;;;;;;5028682;28;20506;-55
2021/07/24 02:20:37;;;;;;;27.33;24.53;;;16.10;99.90;;;;;;5029560;28;20191;-53
2021/07/24 02:23:02;;;;;;;25.93;23.30;;;16.10;99.90;;;;;;5028298;28;20999;-53
2021/07/24 02:25:28;;;;;;;26.53;23.90;;;16.10;99.90;;;;;;5015341;28;20431;-54
2021/07/24 02:27:54;;;;;;;25.50;22.90;;;16.10;99.90;;;;;;5012197;28;20184;-51
2021/07/24 02:30:20;;;;;;;26.30;23.50;;;16.10;99.90;;;;;;5028672;28;20253;-54
2021/07/24 02:32:46;;;;;;;25.07;22.60;;;16.10;99.90;;;;;;5027847;28;20934;-56
2021/07/24 02:35:12;;;;;;;24.90;22.33;;;16.10;99.90;;;;;;5029851;28;20487;-54
2021/07/24 02:37:38;;;;;;;26.87;23.17;;;16.00;99.90;;;;;;5028438;28;20439;-52
2021/07/24 02:40:05;;;;;;;24.80;22.23;;;16.00;99.90;;;;;;5029957;28;20477;-52
2021/07/24 02:42:31;;;;;;;24.70;22.20;;;16.00;99.90;;;;;;5026331;28;20232;-55
2021/07/24 02:44:56;;;;;;;26.30;23.50;;;16.00;99.90;;;;;;5022124;28;20430;-55
2021/07/24 02:47:22;;;;;;;25.30;22.60;;;15.90;99.90;;;;;;5030290;28;20449;-52
2021/07/24 02:49:48;;;;;;;25.80;23.00;;;15.90;99.90;;;;;;5021213;28;20186;-55
2021/07/24 02:52:13;;;;;;;24.47;21.83;;;15.90;99.90;;;;;;5028962;28;20203;-55
2021/07/24 02:54:39;;;;;;;24.30;21.90;;;15.90;99.90;;;;;;5028823;28;20284;-54
2021/07/24 02:57:05;;;;;;;24.60;22.10;;;15.90;99.90;;;;;;5029293;28;20194;-49
2021/07/24 02:59:30;;;;;;;23.53;21.13;;;15.90;99.90;;;;;;5029571;28;20209;-49
2021/07/24 03:01:57;;;;;;;25.30;22.80;;;15.90;99.90;;;;;;5027151;28;20470;-50
2021/07/24 03:04:23;;;;;;;24.27;21.60;;;15.90;99.90;;;;;;5020843;28;20212;-51
2021/07/24 03:06:48;;;;;;;24.07;21.67;;;15.90;99.90;;;;;;5029266;28;20445;-52
2021/07/24 03:09:15;;;;;;;24.73;22.33;;;15.90;99.90;;;;;;5027787;28;20745;-51
2021/07/24 03:11:41;;;;;;;24.27;21.87;;;15.90;99.90;;;;;;5024670;28;20281;-54
2021/07/24 03:14:07;;;;;;;25.23;22.52;;;15.90;99.90;;;;;;5024904;28;21002;-51
2021/07/24 03:16:32;;;;;;;24.67;22.13;;;15.90;99.90;;;;;;5024996;28;20228;-54
2021/07/24 03:18:58;;;;;;;23.27;20.87;;;15.90;99.90;;;;;;5027794;28;20207;-54
2021/07/24 03:21:23;;;;;;;23.40;20.90;;;15.90;99.90;;;;;;5026575;28;20851;-53
2021/07/24 03:23:49;;;;;;;24.03;21.60;;;15.90;99.90;;;;;;5035078;28;20277;-53
2021/07/24 03:26:15;;;;;;;22.90;20.50;;;15.90;99.90;;;;;;5024545;28;20182;-54
2021/07/24 03:28:41;;;;;;;23.20;20.80;;;15.80;99.90;;;;;;5029359;28;20356;-52
2021/07/24 03:31:06;;;;;;;22.83;20.53;;;15.80;99.90;;;;;;5029341;28;20477;-53
2021/07/24 03:33:32;;;;;;;22.77;20.47;;;15.80;99.90;;;;;;5026667;28;20753;-53
2021/07/24 03:35:57;;;;;;;23.90;21.60;;;15.80;99.90;;;;;;5028049;28;20664;-49
2021/07/24 03:38:23;;;;;;;22.73;20.43;;;15.90;99.90;;;;;;5027650;28;20208;-52
2021/07/24 03:40:49;;;;;;;22.67;20.27;;;15.80;99.90;;;;;;5028574;28;20266;-54
2021/07/24 03:43:15;;;;;;;23.27;20.93;;;15.80;99.90;;;;;;5027268;28;20578;-54
2021/07/24 03:45:41;;;;;;;22.53;20.13;;;15.80;99.90;;;;;;5027189;28;20179;-49
2021/07/24 03:48:07;;;;;;;21.47;19.17;;;15.80;99.90;;;;;;5028577;28;20450;-52
2021/07/24 03:50:32;;;;;;;22.20;19.90;;;15.80;99.90;;;;;;5026359;28;20180;-53
2021/07/24 03:52:58;;;;;;;21.37;19.07;;;15.80;99.90;;;;;;5027983;28;20206;-54
2021/07/24 03:55:24;;;;;;;22.23;20.00;;;15.90;99.90;;;;;;5028375;28;20190;-56
2021/07/24 03:57:52;;;;;;;22.47;20.20;;;15.90;99.90;;;;;;5028490;28;20433;-54
2021/07/24 04:00:17;;;;;;;20.80;18.73;;;15.90;99.90;;;;;;5027920;28;20469;-52
2021/07/24 04:02:43;;;;;;;20.70;18.63;;;16.00;99.90;;;;;;5026549;28;20476;-54
2021/07/24 04:05:10;;;;;;;20.60;18.50;;;16.00;99.50;;;;;;5022095;28;20290;-54
2021/07/24 04:07:37;;;;;;;20.30;18.27;;;16.10;95.80;;;;;;5028226;28;20214;-52
2021/07/24 04:10:05;;;;;;;20.00;18.00;;;16.20;92.70;;;;;;5028471;28;20438;-52
2021/07/24 04:12:31;;;;;;;19.33;17.47;;;16.20;88.50;;;;;;5024664;28;20463;-54
2021/07/24 04:14:59;;;;;;;19.63;17.63;;;16.30;79.60;;;;;;5027735;28;20466;-56
2021/07/24 04:17:25;;;;;;;17.13;15.50;;;16.30;76.00;;;;;;5022089;28;20471;-55
2021/07/24 04:19:51;;;;;;;18.30;16.60;;;16.40;58.80;;;;;;5028187;28;20494;-53
2021/07/24 04:22:17;;;;;;;18.10;16.30;;;16.50;49.60;;;;;;5023247;28;20468;-50
2021/07/24 04:24:43;;;;;;;19.10;17.30;;;16.50;48.90;;;;;;5033778;28;20521;-53
2021/07/24 04:27:08;;;;;;;17.77;15.97;;;16.60;46.60;;;;;;5026101;28;20273;-50
2021/07/24 04:29:34;;;;;;;17.77;15.87;;;16.70;38.50;;;;;;5028638;28;20681;-53
2021/07/24 04:32:02;;;;;;;16.60;14.90;;;16.80;35.50;;;;;;5031071;28;20212;-50
2021/07/24 04:34:31;;;;;;;17.70;15.80;;;16.90;25.70;;;;;;5031600;28;20240;-54
2021/07/24 04:36:57;;;;;;;16.90;15.10;;;17.00;20.50;;;;;;5032231;28;20445;-52
2021/07/24 04:39:23;;;;;;;16.37;14.73;;;17.10;12.80;;;;;;5032266;28;20432;-53
2021/07/24 04:41:49;;;;;;;16.50;14.90;;;17.20;7.60;;;;;;5027113;28;20647;-52
2021/07/24 04:44:14;;;;;;;15.90;14.30;;;17.30;1.40;;;;;;5032336;28;20448;-53
2021/07/24 04:46:40;;;;;;;16.60;15.10;;;17.50;1.00;;;;;;5028216;28;20872;-53
2021/07/24 04:49:06;;;;;;;17.63;15.80;;;17.60;1.00;;;;;;5030853;28;20253;-51
2021/07/24 04:51:32;;;;;;;15.40;13.80;;;17.80;1.00;;;;;;5027442;28;20710;-52
2021/07/24 04:53:58;;;;;;;15.13;13.50;;;18.00;1.00;;;;;;5031989;28;20195;-52
2021/07/24 04:56:25;;;;;;;14.63;13.13;;;18.20;1.00;;;;;;5013673;28;21088;-49
2021/07/24 04:58:50;;;;;;;14.53;13.10;;;18.50;1.00;;;;;;5031319;28;20181;-51
2021/07/24 05:01:18;;;;;;;15.13;13.63;;;18.60;1.00;;;;;;5030211;28;20895;-54
2021/07/24 05:03:44;;;;;;;14.47;13.17;;;18.70;1.00;;;;;;5030814;28;20222;-50
2021/07/24 05:06:10;;;;;;;14.03;12.80;;;18.90;1.00;;;;;;5029616;28;20877;-52
2021/07/24 05:08:36;;;;;;;15.50;14.00;;;19.00;1.00;;;;;;5031407;28;20186;-53
2021/07/24 05:11:02;;;;;;;15.10;13.50;;;19.20;1.00;;;;;;5029113;28;20440;-52
2021/07/24 05:13:28;;;;;;;15.10;13.53;;;19.30;1.00;;;;;;5020877;28;20224;-54
2021/07/24 05:15:54;;;;;;;14.10;12.80;;;19.40;1.00;;;;;;5030509;28;20340;-50
2021/07/24 05:18:19;;;;;;;13.80;12.60;;;19.50;99.90;;;;;;5023983;28;20224;-51
2021/07/24 05:20:45;;;;;;;14.37;12.97;;;19.60;99.90;;;;;;5029424;28;20187;-57
2021/07/24 05:23:11;;;;;;;15.13;13.70;;;19.70;99.90;;;;;;5030888;28;20192;-51
2021/07/24 05:25:37;;;;;;;14.70;13.17;;;19.80;99.90;;;;;;5028554;28;20445;-51
2021/07/24 05:28:03;;;;;;;15.63;14.20;;;19.80;99.90;;;;;;5030733;28;20427;-55
2021/07/24 05:30:29;;;;;;;14.47;13.20;;;19.90;43.60;;;;;;5029658;28;20196;-53
2021/07/24 05:32:55;;;;;;;13.53;12.40;;;20.10;1.00;;;;;;5029515;28;20496;-53
2021/07/24 05:35:21;;;;;;;14.20;12.90;;;20.10;1.00;;;;;;5030451;28;20540;-50
2021/07/24 05:37:46;;;;;;;13.73;12.43;;;20.10;1.00;;;;;;5027167;28;20273;-51
2021/07/24 05:40:12;;;;;;;14.40;13.10;;;20.10;1.00;;;;;;5029542;28;20183;-53
2021/07/24 05:42:38;;;;;;;14.87;13.57;;;20.20;1.00;;;;;;5030408;28;20300;-50
2021/07/24 05:45:04;;;;;;;14.87;13.57;;;20.20;99.90;;;;;;5029612;28;20188;-49
2021/07/24 05:47:31;;;;;;;15.13;13.65;;;20.20;1.00;;;;;;5020985;28;20270;-55
2021/07/24 05:49:57;;;;;;;15.73;14.20;;;20.40;1.00;;;;;;5012732;28;20212;-49
2021/07/24 05:52:24;;;;;;;14.13;12.83;;;20.50;99.90;;;;;;5008877;28;20841;-55
2021/07/24 05:54:50;;;;;;;14.67;13.30;;;20.60;99.90;;;;;;5006805;28;20508;-54
2021/07/24 05:57:15;;;;;;;14.37;13.07;;;20.60;1.00;;;;;;5013022;28;20462;-56
2021/07/24 05:59:41;;;;;;;14.43;12.60;;;20.70;1.00;;;;;;5019836;28;20207;-51
2021/07/24 06:02:07;;;;;;;15.27;13.87;;;20.80;99.90;;;;;;5008978;28;20630;-53
2021/07/24 06:04:33;;;;;;;14.77;13.37;;;20.80;91.70;;;;;;5016663;28;20193;-53
2021/07/24 06:06:59;;;;;;;14.93;13.43;;;20.90;99.90;;;;;;5009366;28;20201;-52
2021/07/24 06:09:26;;;;;;;15.50;14.07;;;21.00;1.00;;;;;;5011350;28;20442;-55
2021/07/24 06:11:52;;;;;;;14.67;13.27;;;21.10;6.60;;;;;;5006231;28;20496;-54
2021/07/24 06:14:17;;;;;;;14.43;13.20;;;21.10;1.00;;;;;;5009185;28;20434;-52
2021/07/24 06:16:43;;;;;;;14.87;13.47;;;21.30;99.90;;;;;;5012908;28;21074;-55
2021/07/24 06:19:09;;;;;;;15.27;13.90;;;21.30;99.90;;;;;;5009641;28;20195;-54
2021/07/24 06:21:34;;;;;;;14.77;13.37;;;21.30;44.50;;;;;;5006592;28;20213;-50
2021/07/24 06:24:00;;;;;;;15.67;14.30;;;21.40;99.90;;;;;;5015492;28;20214;-55
2021/07/24 06:26:25;;;;;;;15.43;14.03;;;21.40;1.00;;;;;;4999091;28;20183;-54
2021/07/24 06:28:51;;;;;;;14.90;13.60;;;21.40;1.00;;;;;;5011927;28;20179;-51
2021/07/24 06:31:16;;;;;;;14.40;13.07;;;21.50;1.00;;;;;;5007845;28;20193;-53
2021/07/24 06:33:42;;;;;;;14.90;13.53;;;21.60;1.00;;;;;;5014063;28;20815;-53
2021/07/24 06:36:07;;;;;;;15.33;13.83;;;21.60;99.90;;;;;;5020326;28;20182;-54
2021/07/24 06:38:33;;;;;;;13.80;12.70;;;21.70;1.00;;;;;;5012207;28;20198;-56
2021/07/24 06:40:58;;;;;;;14.67;13.30;;;21.90;99.90;;;;;;5010810;28;20194;-55
2021/07/24 06:43:24;;;;;;;14.50;13.30;;;22.00;99.90;;;;;;5020806;28;20186;-55
2021/07/24 06:45:50;;;;;;;15.03;13.80;;;22.10;1.00;;;;;;5008925;28;20191;-53
2021/07/24 06:48:15;;;;;;;14.50;13.30;;;22.10;1.00;;;;;;5003296;28;20194;-51
2021/07/24 06:50:41;;;;;;;14.73;13.43;;;22.20;99.90;;;;;;5006284;28;20179;-51
2021/07/24 06:53:07;;;;;;;14.40;13.10;;;22.30;98.40;;;;;;5018042;28;20986;-54
2021/07/24 06:55:32;;;;;;;14.23;13.03;;;22.30;99.90;;;;;;5011269;28;20182;-52
2021/07/24 06:58:01;;;;;;;14.67;13.37;;;22.40;1.00;;;;;;5023376;28;20264;-50
2021/07/24 07:00:27;;;;;;;15.17;13.67;;;22.60;1.00;;;;;;5024809;28;20782;-52
2021/07/24 07:02:59;;;;;;;14.77;13.47;;;22.60;1.00;;;;;;5010693;28;20437;-52
2021/07/24 07:05:26;;;;;;;15.23;13.93;;;22.70;1.00;;;;;;5028074;28;20435;-51
2021/07/24 07:07:52;;;;;;;14.77;13.50;;;22.70;99.90;;;;;;5029745;28;20977;-52
2021/07/24 07:10:18;;;;;;;14.30;13.10;;;22.70;99.90;;;;;;5028941;28;21263;-54
2021/07/24 07:12:43;;;;;;;15.50;14.20;;;22.70;99.90;;;;;;5016541;28;20679;-52
2021/07/24 07:15:09;;;;;;;15.07;13.87;;;22.90;99.90;;;;;;5029834;28;20629;-52
2021/07/24 07:17:35;;;;;;;15.30;14.00;;;23.00;99.90;;;;;;5028488;28;20230;-53
2021/07/24 07:20:06;;;;;;;15.47;14.13;;;23.10;99.90;;;;;;5029443;28;20986;-53
2021/07/24 07:22:31;;;;;;;14.90;13.50;;;23.20;36.40;;;;;;5033459;28;20229;-55
2021/07/24 07:24:57;;;;;;;14.80;13.60;;;23.40;1.00;;;;;;5030616;28;20432;-51
2021/07/24 07:27:22;;;;;;;14.90;13.60;;;23.40;1.00;;;;;;5029916;28;20201;-52
2021/07/24 07:29:48;;;;;;;15.10;13.80;;;23.60;1.00;;;;;;5028264;28;20186;-53
2021/07/24 07:32:14;;;;;;;15.10;13.70;;;23.60;1.00;;;;;;5022564;28;20660;-52
2021/07/24 07:34:40;;;;;;;15.17;13.67;;;23.80;1.00;;;;;;5028616;28;20177;-51
2021/07/24 07:37:06;;;;;;;14.87;13.60;;;23.90;99.90;;;;;;5033037;28;20429;-52
2021/07/24 07:39:31;;;;;;;15.50;14.10;;;24.10;99.90;;;;;;5028777;28;20305;-51
2021/07/24 07:41:57;;;;;;;15.03;13.67;;;24.10;99.90;;;;;;5031348;28;20190;-52
2021/07/24 07:44:24;;;;;;;14.63;13.43;;;24.20;99.90;;;;;;5029389;28;20558;-50
2021/07/24 07:46:52;;;;;;;14.23;13.13;;;24.20;99.90;;;;;;5028575;28;20687;-50
2021/07/24 07:49:18;;;;;;;14.77;13.57;;;24.30;99.90;;;;;;5029471;28;20432;-52
2021/07/24 07:51:43;;;;;;;14.53;13.30;;;24.50;55.60;;;;;;5029345;28;20409;-54
2021/07/24 07:54:09;;;;;;;14.63;13.33;;;24.50;22.50;;;;;;5029197;28;20197;-51
2021/07/24 07:56:35;;;;;;;15.80;14.50;;;24.60;1.00;;;;;;5025182;28;20175;-51
2021/07/24 07:59:00;;;;;;;15.23;13.87;;;24.70;1.00;;;;;;5029158;28;20179;-55
2021/07/24 08:01:26;;;;;;;14.53;13.20;;;24.80;1.00;;;;;;5028644;28;20201;-48
2021/07/24 08:03:52;;;;;;;14.30;12.97;;;24.90;1.00;;;;;;5029559;28;20320;-52
2021/07/24 08:06:17;;;;;;;14.00;12.90;;;25.00;1.00;;;;;;5028415;28;20285;-50
2021/07/24 08:08:43;;;;;;;14.00;12.90;;;25.10;1.00;;;;;;5028459;28;20214;-51
2021/07/24 08:11:10;;;;;;;14.47;13.27;;;25.30;1.00;;;;;;5027511;28;20557;-53
2021/07/24 08:13:35;;;;;;;14.80;13.40;;;25.60;1.00;;;;;;5027346;28;20477;-49
2021/07/24 08:16:01;;;;;;;14.07;12.97;;;25.70;1.00;;;;;;5019014;28;20825;-51
2021/07/24 08:18:26;;;;;;;13.90;12.80;;;25.90;1.00;;;;;;5026530;28;20305;-49
2021/07/24 08:20:52;;;;;;;15.20;14.00;;;25.90;1.00;;;;;;5027009;28;20546;-52
2021/07/24 08:23:17;;;;;;;14.07;12.97;;;26.10;1.00;;;;;;5033949;28;20198;-50
2021/07/24 08:25:43;;;;;;;15.07;13.87;;;26.20;1.00;;;;;;5029262;28;20182;-55
2021/07/24 08:28:09;;;;;;;13.97;12.87;;;26.40;1.00;;;;;;5023897;28;20182;-53
2021/07/24 08:30:35;;;;;;;13.70;12.57;;;26.70;1.00;;;;;;5038830;28;20494;-50
2021/07/24 08:33:01;;;;;;;14.82;13.73;;;26.80;1.00;;;;;;5016845;28;20832;-53
2021/07/24 08:35:26;;;;;;;14.20;13.07;;;26.90;1.00;;;;;;5023332;28;20195;-50
2021/07/24 08:37:52;;;;;;;15.37;13.73;;;27.00;1.00;;;;;;5024993;28;20652;-52
2021/07/24 08:40:18;;;;;;;13.47;12.27;;;27.10;1.00;;;;;;5027520;28;20434;-55
2021/07/24 08:42:44;;;;;;;14.20;13.00;;;27.20;1.00;;;;;;5025758;28;20814;-51
2021/07/24 08:45:13;;;;;;;15.40;14.00;;;27.40;1.00;;;;;;5026706;28;20190;-54
2021/07/24 08:47:39;;;;;;;15.07;13.87;;;27.50;1.00;;;;;;5025820;28;20589;-55
2021/07/24 08:50:09;;;;;;;15.13;13.90;;;27.60;1.00;;;;;;5026598;28;20441;-53
2021/07/24 08:52:36;;;;;;;14.90;13.77;;;27.70;99.90;;;;;;5020789;28;20244;-49
2021/07/24 08:55:04;;;;;;;14.57;13.37;;;27.80;99.90;;;;;;5028207;28;20436;-52
2021/07/24 08:57:34;;;;;;;14.53;13.33;;;27.90;99.90;;;;;;5028966;28;21317;-51
2021/07/24 09:00:15;;;;;;;14.40;13.20;;;28.00;99.90;;;;;;5027435;28;20429;-53
2021/07/24 09:02:43;;;;;;;15.97;14.77;;;28.10;99.90;;;;;;5025919;28;20576;-53
2021/07/24 09:05:11;;;;;;;15.00;13.80;;;28.30;99.90;;;;;;5025898;28;20441;-55
2021/07/24 09:07:39;;;;;;;16.00;14.50;;;28.30;99.90;;;;;;5027131;28;20453;-54
2021/07/24 09:10:06;;;;;;;15.67;14.57;;;28.40;99.90;;;;;;5029566;28;20950;-53
2021/07/24 09:12:31;;;;;;;15.00;13.50;;;28.50;99.90;;;;;;5031919;28;20491;-54
2021/07/24 09:14:58;;;;;;;15.80;14.70;;;28.60;99.90;;;;;;5022003;28;20436;-51
2021/07/24 09:17:23;;;;;;;15.98;14.48;;;28.70;99.90;;;;;;5029253;28;20264;-53
2021/07/24 09:19:50;;;;;;;15.00;13.90;;;28.70;99.90;;;;;;5028856;28;20264;-50
2021/07/24 09:22:29;;;;;;;14.37;13.23;;;28.70;99.90;;;;;;5033373;28;20214;-54
2021/07/24 09:25:18;;;;;;;15.37;14.07;;;28.70;99.90;;;;;;5029715;28;20595;-55
2021/07/24 09:27:59;;;;;;;15.77;14.37;;;28.90;99.90;;;;;;5024070;28;21013;-53
2021/07/24 09:30:24;;;;;;;15.93;14.63;;;29.00;99.90;;;;;;5027037;28;20556;-52
2021/07/24 09:33:08;;;;;;;14.77;13.30;;;29.20;99.90;;;;;;5030300;28;20548;-52
2021/07/24 09:35:40;;;;;;;14.27;13.03;;;29.30;99.90;;;;;;5025008;28;22748;-52
2021/07/24 09:38:13;;;;;;;14.97;13.87;;;29.40;99.90;;;;;;5036525;28;20425;-52
2021/07/24 09:40:41;;;;;;;14.07;13.07;;;29.50;99.90;;;;;;5025992;28;20444;-51
2021/07/24 09:43:29;;;;;;;15.37;14.17;;;29.70;99.90;;;;;;5012530;28;20444;-53
2021/07/24 09:46:10;;;;;;;14.33;13.23;;;29.80;99.90;;;;;;5017662;28;20433;-50
2021/07/24 09:48:36;;;;;;;15.33;14.17;;;30.00;99.90;;;;;;5026217;28;20455;-52
2021/07/24 09:51:02;;;;;;;16.63;15.07;;;30.10;99.90;;;;;;5029251;28;20438;-50
2021/07/24 09:53:38;;;;;;;15.30;14.20;;;30.30;99.90;;;;;;5021436;28;20226;-54
2021/07/24 09:56:04;;;;;;;15.17;14.07;;;30.40;99.90;;;;;;5023984;28;20174;-55
2021/07/24 09:58:30;;;;;;;14.27;13.10;;;30.50;99.90;;;;;;5034799;28;21441;-52
2021/07/24 10:01:22;;;;;;;15.17;13.67;;;30.70;99.90;;;;;;5029874;28;20567;-49
2021/07/24 10:03:51;;;;;;;14.90;13.73;;;30.90;99.90;;;;;;5013641;28;20207;-54
2021/07/24 10:06:17;;;;;;;13.93;13.03;;;31.10;99.90;;;;;;5030815;28;20491;-49
2021/07/24 10:08:44;;;;;;;15.10;14.10;;;31.30;99.90;;;;;;5029918;28;20947;-52
2021/07/24 10:11:10;;;;;;;14.80;13.50;;;31.40;99.90;;;;;;5029526;28;20495;-53
2021/07/24 10:13:40;;;;;;;14.03;12.93;;;31.50;99.90;;;;;;5030873;28;20460;-55
2021/07/24 10:16:06;;;;;;;13.53;12.53;;;31.80;99.90;;;;;;5023939;28;20441;-53
2021/07/24 10:18:32;;;;;;;14.90;13.70;;;32.00;99.90;;;;;;5022419;28;20476;-50
2021/07/24 10:20:58;;;;;;;13.80;12.63;;;32.20;99.90;;;;;;5030728;28;20186;-51
2021/07/24 10:23:24;;;;;;;13.97;13.00;;;32.30;99.90;;;;;;5027709;28;20463;-53
2021/07/24 10:26:09;;;;;;;13.40;12.40;;;32.40;99.90;;;;;;5028552;28;20190;-55
2021/07/24 10:29:04;;;;;;;12.90;12.10;;;32.60;99.90;;;;;;5020780;28;20525;-55
2021/07/24 10:31:47;;;;;;;13.57;12.60;;;32.80;99.90;;;;;;5012089;28;20454;-54
2021/07/24 10:34:14;;;;;;;13.17;12.27;;;32.80;99.90;;;;;;5027275;28;20441;-49
2021/07/24 10:36:42;;;;;;;12.50;11.60;;;32.90;99.90;;;;;;5027623;28;20413;-50
2021/07/24 10:39:17;;;;;;;14.13;13.07;;;32.90;99.90;;;;;;5028243;28;21005;-52
2021/07/24 10:41:44;;;;;;;13.37;12.57;;;33.10;99.90;;;;;;5025470;28;21689;-54
2021/07/24 10:44:29;;;;;;;13.20;12.30;;;32.70;99.90;;;;;;5025920;28;20971;-49
2021/07/24 10:46:57;;;;;;;13.37;12.47;;;32.70;99.90;;;;;;5025741;28;20834;-52
2021/07/24 10:49:26;;;;;;;12.47;11.63;;;32.20;99.90;;;;;;5028509;28;20413;-54
2021/07/24 10:51:58;;;;;;;13.77;12.63;;;32.40;99.90;;;;;;5024663;28;20919;-54
2021/07/24 10:54:29;;;;;;;14.30;12.90;;;32.10;99.90;;;;;;5029211;28;20406;-51
2021/07/24 10:56:54;;;;;;;13.68;12.77;;;32.10;99.90;;;;;;5026620;28;20430;-50
2021/07/24 10:59:28;;;;;;;14.87;13.60;;;32.10;99.90;;;;;;5027255;28;20189;-51
2021/07/24 11:01:55;;;;;;;14.00;13.00;;;32.20;99.90;;;;;;5028692;28;20597;-51
2021/07/24 11:04:35;;;;;;;13.60;12.70;;;32.00;99.90;;;;;;5026708;28;20425;-52
2021/07/24 11:07:13;;;;;;;13.32;12.23;;;32.00;99.90;;;;;;5026828;28;20443;-50
2021/07/24 11:09:43;;;;;;;13.53;12.47;;;31.80;99.90;;;;;;5024157;28;20265;-50
2021/07/24 11:12:11;;;;;;;12.63;11.73;;;31.90;99.90;;;;;;5028320;28;20492;-52
2021/07/24 11:14:42;;;;;;;13.20;12.20;;;32.00;99.90;;;;;;5028388;28;20524;-48
2021/07/24 11:17:17;;;;;;;12.43;11.53;;;31.80;99.90;;;;;;5026275;28;20478;-51
2021/07/24 11:19:51;;;;;;;12.90;12.00;;;31.90;99.90;;;;;;5028516;28;20435;-51
2021/07/24 11:22:19;;;;;;;13.63;12.63;;;31.90;99.90;;;;;;5029272;28;20606;-52
2021/07/24 11:25:04;;;;;;;13.33;12.20;;;32.00;99.90;;;;;;5028322;28;20445;-50
2021/07/24 11:27:34;;;;;;;12.80;11.90;;;32.00;99.90;;;;;;5028178;28;20435;-51
2021/07/24 11:30:06;;;;;;;13.50;12.50;;;32.10;99.90;;;;;;5029813;28;20429;-51
2021/07/24 11:32:34;;;;;;;13.30;12.30;;;32.00;99.90;;;;;;5026063;28;20564;-49
2021/07/24 11:35:05;;;;;;;14.07;12.87;;;31.80;99.90;;;;;;5029672;28;20445;-50
2021/07/24 11:37:35;;;;;;;13.30;12.40;;;31.80;99.90;;;;;;5027682;28;20432;-49
2021/07/24 11:40:02;;;;;;;13.33;12.40;;;31.90;99.90;;;;;;5019295;28;20422;-54
2021/07/24 11:42:27;;;;;;;13.27;12.27;;;31.90;99.90;;;;;;5023060;28;20436;-49
2021/07/24 11:44:53;;;;;;;13.90;12.80;;;31.70;99.90;;;;;;5018537;28;20424;-47
2021/07/24 11:47:18;;;;;;;13.33;12.33;;;31.60;99.90;;;;;;5027447;28;20205;-48
2021/07/24 11:49:44;;;;;;;13.37;12.37;;;31.60;99.90;;;;;;5021189;28;20198;-54
2021/07/24 11:52:10;;;;;;;14.10;12.80;;;31.60;99.90;;;;;;5027007;28;20202;-53
2021/07/24 11:54:36;;;;;;;13.80;12.80;;;31.70;99.90;;;;;;5028255;28;20187;-49
2021/07/24 11:57:04;;;;;;;14.25;13.15;;;31.50;99.90;;;;;;5028060;28;20443;-53
2021/07/24 11:59:34;;;;;;;13.68;12.77;;;31.30;99.90;;;;;;5029205;28;20261;-51
2021/07/24 12:02:01;;;;;;;14.13;13.10;;;31.30;99.90;;;;;;5023745;28;20178;-53
2021/07/24 12:04:27;;;;;;;14.33;13.13;;;31.30;99.90;;;;;;5028380;28;20486;-48
2021/07/24 12:07:03;;;;;;;14.03;13.07;;;31.40;99.90;;;;;;5024603;28;20433;-51
2021/07/24 12:09:30;;;;;;;14.03;12.93;;;31.60;99.90;;;;;;5026335;28;20441;-49
2021/07/24 12:11:59;;;;;;;13.80;12.73;;;31.70;99.90;;;;;;5024156;28;21536;-48
2021/07/24 12:14:27;;;;;;;13.70;12.60;;;32.10;99.90;;;;;;5027421;28;20441;-48
2021/07/24 12:17:12;;;;;;;13.60;12.67;;;31.90;99.90;;;;;;5027993;28;20972;-53
2021/07/24 12:19:43;;;;;;;14.47;13.37;;;32.00;99.90;;;;;;5007422;28;20437;-50
2021/07/24 12:22:13;;;;;;;15.00;13.80;;;31.80;99.90;;;;;;5027765;28;20425;-52
2021/07/24 12:24:39;;;;;;;14.20;13.10;;;32.00;99.90;;;;;;5026862;28;20432;-48
2021/07/24 12:27:10;;;;;;;12.77;11.93;;;32.00;99.90;;;;;;5028218;28;21140;-52
2021/07/24 12:29:58;;;;;;;14.60;13.60;;;32.00;99.90;;;;;;5026937;28;20526;-48
2021/07/24 12:32:36;;;;;;;14.30;13.20;;;32.00;99.90;;;;;;5028047;28;20503;-49